Time;durP1;ratioP1;P1;durP2;ratioP2;P2;SDS_P1;SDS_P2;PMS_P1;PMS_P2;Temp;Humidity;BMP_temperature;BMP_pressure;BME280_temperature;BME280_humidity;BME280_pressure;Samples;Min_cycle;Max_cycle;Signal;HPM_P1;HPM_P2
2021/07/21 00:02:24;;;;;;;9.77;4.63;;;;;;;26.49;50.86;100745.19;5040401;28;20040;-68
2021/07/21 00:05:11;;;;;;;10.07;4.38;;;;;;;26.53;51.13;100747.94;5034959;28;20512;-68
2021/07/21 00:07:57;;;;;;;6.10;3.47;;;;;;;26.52;50.86;100752.72;5020550;28;20053;-68
2021/07/21 00:10:44;;;;;;;7.60;3.63;;;;;;;26.58;49.75;100747.44;5020262;28;20061;-69
2021/07/21 00:13:32;;;;;;;9.40;3.53;;;;;;;26.67;49.57;100750.47;5020387;28;20052;-68
2021/07/21 00:16:20;;;;;;;10.95;4.20;;;;;;;26.66;49.76;100741.34;5040132;28;20056;-68
2021/07/21 00:20:05;;;;;;;8.90;3.72;;;;;;;26.70;49.72;100741.28;5040006;28;20049;-68
2021/07/21 00:22:13;;;;;;;6.95;3.00;;;;;;;26.71;49.64;100737.28;5031842;28;20064;-68
2021/07/21 00:24:58;;;;;;;8.40;3.47;;;;;;;26.70;49.95;100742.06;5016394;28;20556;-68
2021/07/21 00:27:45;;;;;;;9.32;3.45;;;;;;;26.73;50.22;100740.41;5036565;28;20056;-68
2021/07/21 00:30:29;;;;;;;5.55;3.03;;;;;;;26.73;50.13;100746.78;5039857;28;20052;-68
2021/07/21 00:33:15;;;;;;;9.40;4.30;;;;;;;26.73;50.52;100738.41;5039539;28;20053;-68
2021/07/21 00:36:00;;;;;;;5.47;3.00;;;;;;;26.64;50.71;100742.97;5032182;28;20052;-67
2021/07/21 00:38:45;;;;;;;7.43;3.20;;;;;;;26.53;51.27;100739.56;5039474;28;20052;-69
2021/07/21 00:41:33;;;;;;;9.50;3.50;;;;;;;26.47;51.61;100738.44;5019849;28;20508;-67
2021/07/21 00:44:18;;;;;;;9.02;3.63;;;;;;;26.46;51.70;100748.84;5013388;28;20049;-68
2021/07/21 00:47:08;;;;;;;8.80;4.20;;;;;;;26.45;51.71;100746.47;5061424;28;20052;-70
2021/07/21 00:49:53;;;;;;;11.73;4.43;;;;;;;26.43;51.42;100740.50;5026409;28;20057;-70
2021/07/21 00:52:40;;;;;;;15.27;4.00;;;;;;;26.49;51.15;100744.41;5018746;28;20068;-70
2021/07/21 00:55:27;;;;;;;6.55;3.83;;;;;;;26.52;51.14;100746.34;5016607;28;20425;-70
2021/07/21 00:58:15;;;;;;;15.13;4.13;;;;;;;26.49;51.44;100741.63;5036819;28;20053;-70
2021/07/21 01:01:01;;;;;;;7.55;3.58;;;;;;;26.41;51.42;100735.38;5034466;28;20401;-70
2021/07/21 01:03:46;;;;;;;11.55;4.18;;;;;;;26.40;51.54;100728.22;5023973;28;20049;-70
2021/07/21 01:06:32;;;;;;;9.77;3.78;;;;;;;26.35;51.63;100729.50;5032046;28;20048;-70
2021/07/21 01:09:50;;;;;;;8.68;4.07;;;;;;;26.38;51.68;100731.44;5037973;28;20064;-70
2021/07/21 01:12:46;;;;;;;13.80;3.75;;;;;;;26.40;51.63;100728.22;5022595;28;20516;-68
2021/07/21 01:15:47;;;;;;;6.78;3.53;;;;;;;26.35;51.91;100729.50;5032878;28;20044;-69
2021/07/21 01:18:46;;;;;;;8.32;4.05;;;;;;;26.35;51.84;100726.69;5038205;28;20056;-68
2021/07/21 01:22:04;;;;;;;6.13;3.75;;;;;;;26.35;51.78;100729.50;5039001;28;20048;-68
2021/07/21 01:25:03;;;;;;;14.38;3.92;;;;;;;26.35;51.85;100721.13;5062673;28;20044;-69
2021/07/21 01:27:50;;;;;;;11.20;3.22;;;;;;;26.30;51.89;100721.59;5037751;28;20044;-70
2021/07/21 01:30:38;;;;;;;13.50;3.80;;;;;;;26.26;51.92;100723.63;5039144;28;20508;-70
2021/07/21 01:33:25;;;;;;;10.10;4.10;;;;;;;26.25;51.84;100724.09;5038965;28;20117;-69
2021/07/21 01:36:39;;;;;;;14.10;4.63;;;;;;;26.22;51.48;100727.69;5019156;28;20228;-69
2021/07/21 01:39:31;;;;;;;7.72;3.88;;;;;;;26.26;51.77;100731.25;5022004;28;20036;-69
2021/07/21 01:42:18;;;;;;;15.18;4.00;;;;;;;26.28;51.79;100732.38;5037741;28;20048;-69
2021/07/21 01:45:05;;;;;;;8.82;4.95;;;;;;;26.25;51.84;100722.09;5033631;28;20052;-69
2021/07/21 01:47:51;;;;;;;15.85;3.60;;;;;;;26.21;52.16;100724.09;5027133;28;20044;-69
2021/07/21 01:50:42;;;;;;;12.15;4.97;;;;;;;26.19;52.27;100729.31;5038532;28;20049;-69
2021/07/21 01:53:31;;;;;;;15.02;4.03;;;;;;;26.17;52.26;100730.94;5038360;28;20654;-69
2021/07/21 01:56:22;;;;;;;10.55;4.00;;;;;;;26.17;52.16;100728.13;5038570;28;20056;-69
2021/07/21 01:59:11;;;;;;;22.13;4.50;;;;;;;26.15;52.18;100725.78;5032734;28;20107;-69
2021/07/21 02:02:20;;;;;;;14.25;3.95;;;;;;;26.18;52.04;100715.78;5033350;28;20406;-71
2021/07/21 02:05:19;;;;;;;8.30;3.75;;;;;;;26.16;52.06;100721.78;5032301;28;20519;-69
2021/07/21 02:08:05;;;;;;;11.55;4.72;;;;;;;26.13;52.11;100725.41;5031113;28;20045;-69
2021/07/21 02:10:51;;;;;;;14.93;4.05;;;;;;;26.10;52.13;100726.28;5026681;28;20044;-70
2021/07/21 02:13:39;;;;;;;11.63;4.78;;;;;;;26.09;51.87;100723.88;5040188;28;20052;-70
2021/07/21 02:16:48;;;;;;;9.90;4.28;;;;;;;26.06;51.98;100730.31;5041058;28;20044;-69
2021/07/21 02:19:43;;;;;;;15.93;5.15;;;;;;;26.04;51.99;100730.72;5032570;28;20056;-68
2021/07/21 02:22:45;;;;;;;7.68;4.55;;;;;;;26.02;52.05;100726.78;5041249;28;20048;-68
2021/07/21 02:26:06;;;;;;;10.55;4.45;;;;;;;26.02;51.91;100724.78;5042530;28;20064;-69
2021/07/21 02:28:51;;;;;;;11.85;4.43;;;;;;;26.03;51.77;100714.41;5042154;28;20048;-69
2021/07/21 02:31:46;;;;;;;7.63;3.90;;;;;;;25.97;52.07;100717.69;5041183;28;20071;-69
2021/07/21 02:34:31;;;;;;;8.60;4.13;;;;;;;25.97;52.01;100719.69;5037088;28;20048;-69
2021/07/21 02:37:19;;;;;;;11.40;4.60;;;;;;;25.97;52.25;100722.47;5021297;28;20060;-68
2021/07/21 02:40:06;;;;;;;7.65;3.72;;;;;;;26.00;52.16;100730.00;5037675;28;20406;-69
2021/07/21 02:42:53;;;;;;;13.20;4.05;;;;;;;26.01;52.13;100728.75;5040007;28;20055;-70
2021/07/21 02:45:39;;;;;;;9.60;3.92;;;;;;;25.98;52.24;100718.47;5036374;28;20048;-70
2021/07/21 02:48:29;;;;;;;20.10;3.85;;;;;;;25.96;52.38;100727.25;5040941;28;20524;-68
2021/07/21 02:51:31;;;;;;;52.38;12.15;;;;;;;26.05;52.03;100729.53;5035214;28;20053;-69
2021/07/21 02:54:39;;;;;;;49.13;11.15;;;;;;;26.13;52.00;100731.00;5040082;28;20049;-68
2021/07/21 02:57:41;;;;;;;17.75;5.15;;;;;;;26.16;51.91;100732.16;5040268;28;20030;-73
2021/07/21 03:00:30;;;;;;;14.45;4.50;;;;;;;26.20;51.57;100730.91;5031745;28;20056;-68
2021/07/21 03:03:21;;;;;;;24.58;4.20;;;;;;;26.23;51.34;100737.63;5039655;28;20048;-70
2021/07/21 03:06:09;;;;;;;9.43;4.13;;;;;;;26.22;51.42;100733.28;5040840;28;20068;-69
2021/07/21 03:09:06;;;;;;;12.60;4.30;;;;;;;26.25;51.24;100736.03;5041175;28;20043;-69
2021/07/21 03:11:59;;;;;;;11.23;4.25;;;;;;;26.26;51.18;100745.94;5041030;28;20052;-70
2021/07/21 03:14:46;;;;;;;9.88;3.97;;;;;;;26.26;51.34;100745.94;5028748;28;20048;-70
2021/07/21 03:17:35;;;;;;;9.50;4.25;;;;;;;26.27;51.36;100753.09;5037445;28;20049;-70
2021/07/21 03:20:23;;;;;;;11.68;4.63;;;;;;;26.26;51.37;100745.94;5034411;28;20044;-70
2021/07/21 03:23:27;;;;;;;10.07;4.90;;;;;;;26.23;51.13;100744.00;5026706;28;20048;-68
2021/07/21 03:26:35;;;;;;;11.68;4.65;;;;;;;26.20;51.35;100752.41;5033901;28;20511;-68
2021/07/21 03:29:31;;;;;;;8.70;4.40;;;;;;;26.20;51.49;100753.19;5059190;28;20041;-69
2021/07/21 03:32:27;;;;;;;10.68;4.18;;;;;;;26.21;51.26;100757.53;5034102;28;20064;-69
2021/07/21 03:35:13;;;;;;;15.95;4.22;;;;;;;26.19;51.22;100762.75;5033856;28;20044;-69
2021/07/21 03:37:59;;;;;;;10.25;4.00;;;;;;;26.17;51.46;100759.59;5041628;28;20076;-69
2021/07/21 03:40:49;;;;;;;10.25;4.78;;;;;;;26.16;51.46;100762.81;5039520;28;20531;-69
2021/07/21 03:43:42;;;;;;;18.15;4.18;;;;;;;26.12;51.52;100759.28;5038047;28;20044;-69
2021/07/21 03:46:36;;;;;;;13.02;4.50;;;;;;;26.11;51.52;100764.06;5051009;28;20250;-70
2021/07/21 03:49:20;;;;;;;12.65;4.22;;;;;;;26.10;51.50;100759.72;5038357;28;20044;-69
2021/07/21 03:52:25;;;;;;;10.20;4.97;;;;;;;26.10;51.53;100764.50;5038459;28;20048;-69
2021/07/21 03:55:30;;;;;;;14.27;4.57;;;;;;;26.13;51.59;100769.22;5032940;28;20520;-69
2021/07/21 03:58:28;;;;;;;11.82;4.47;;;;;;;26.12;51.51;100773.22;5013216;28;20041;-69
2021/07/21 04:01:24;;;;;;;11.07;4.10;;;;;;;26.12;51.35;100768.44;5056931;28;20052;-70
2021/07/21 04:04:18;;;;;;;16.33;5.20;;;;;;;26.14;51.49;100771.59;5037662;28;20048;-69
2021/07/21 04:07:03;;;;;;;18.33;5.28;;;;;;;26.12;51.56;100768.44;5032769;28;20056;-69
2021/07/21 04:09:58;;;;;;;21.85;5.72;;;;;;;26.09;51.66;100769.28;5037767;28;20052;-69
2021/07/21 04:12:49;;;;;;;17.88;4.93;;;;;;;26.07;51.73;100780.06;5038323;28;20421;-69
2021/07/21 04:15:39;;;;;;;15.52;4.13;;;;;;;26.05;51.95;100782.50;5029616;28;20052;-69
2021/07/21 04:18:30;;;;;;;12.18;4.60;;;;;;;26.03;51.70;100787.69;5034772;28;20068;-70
2021/07/21 04:21:16;;;;;;;8.98;4.30;;;;;;;26.03;51.92;100795.25;5038924;28;20052;-69
2021/07/21 04:24:09;;;;;;;12.30;4.15;;;;;;;26.01;51.88;100800.47;5033436;28;20048;-70
2021/07/21 04:26:56;;;;;;;9.32;4.45;;;;;;;25.98;51.80;100804.88;5020090;28;20060;-70
2021/07/21 04:29:46;;;;;;;9.93;4.40;;;;;;;26.02;51.87;100813.97;5037410;28;20052;-69
2021/07/21 04:32:33;;;;;;;9.20;4.03;;;;;;;26.02;51.91;100808.38;5038446;28;20048;-69
2021/07/21 04:35:19;;;;;;;12.43;5.32;;;;;;;25.97;52.07;100812.44;5031061;28;20508;-69
2021/07/21 04:38:25;;;;;;;10.68;4.63;;;;;;;25.98;52.08;100825.16;5039678;28;20099;-69
2021/07/21 04:41:26;;;;;;;13.45;4.32;;;;;;;26.01;52.45;100833.91;5034613;28;20056;-69
2021/07/21 04:44:18;;;;;;;19.58;6.35;;;;;;;25.94;51.77;100829.22;5032844;28;20052;-69
2021/07/21 04:47:13;;;;;;;12.77;4.90;;;;;;;25.98;52.19;100827.16;5035517;28;20044;-70
2021/07/21 04:50:06;;;;;;;22.00;5.45;;;;;;;26.14;52.35;100832.13;5032864;28;20052;-69
2021/07/21 04:52:51;;;;;;;18.58;6.30;;;;;;;26.12;51.90;100829.75;5037753;28;20089;-69
2021/07/21 04:55:41;;;;;;;20.30;5.97;;;;;;;26.16;51.71;100829.72;5028924;28;20548;-69
2021/07/21 04:58:25;;;;;;;17.77;5.18;;;;;;;26.14;51.71;100832.13;5036106;28;20045;-69
2021/07/21 05:01:21;;;;;;;16.40;5.18;;;;;;;26.16;51.90;100846.47;5038058;28;20048;-69
2021/07/21 05:04:08;;;;;;;16.65;4.85;;;;;;;26.15;51.98;100844.88;5034274;28;20064;-69
2021/07/21 05:07:02;;;;;;;24.60;5.40;;;;;;;26.09;52.58;100847.34;5030818;28;20064;-69
2021/07/21 05:10:01;;;;;;;33.58;7.07;;;;;;;25.54;54.90;100851.13;5037241;28;20048;-70
2021/07/21 05:12:47;;;;;;;18.25;6.20;;;;;;;25.46;55.07;100855.19;5033254;28;20041;-69
2021/07/21 05:15:37;;;;;;;21.45;6.18;;;;;;;25.38;55.99;100861.25;5023543;28;20048;-69
2021/07/21 05:18:31;;;;;;;12.95;5.90;;;;;;;25.44;55.75;100868.75;5030061;28;20044;-69
2021/07/21 05:21:19;;;;;;;73.75;8.38;;;;;;;25.65;54.60;100872.53;5034687;28;20052;-69
2021/07/21 05:24:05;;;;;;;70.55;10.55;;;;;;;25.79;54.28;100873.19;5032760;28;20054;-70
2021/07/21 05:26:50;;;;;;;57.15;7.93;;;;;;;25.91;54.03;100875.41;5031550;28;20046;-69
2021/07/21 05:29:43;;;;;;;23.83;5.90;;;;;;;25.94;54.12;100874.59;5035410;28;20052;-69
2021/07/21 05:32:41;;;;;;;31.83;7.43;;;;;;;26.02;54.17;100880.06;5035266;28;20064;-69
2021/07/21 05:35:29;;;;;;;15.32;5.65;;;;;;;26.01;54.36;100890.44;5032366;28;20516;-69
2021/07/21 05:38:26;;;;;;;25.00;5.97;;;;;;;25.95;54.47;100892.09;5034747;28;20048;-70
2021/07/21 05:41:11;;;;;;;25.13;6.60;;;;;;;26.05;54.48;100890.41;5038847;28;20397;-70
2021/07/21 05:44:00;;;;;;;19.52;6.32;;;;;;;26.13;54.23;100891.88;5031273;28;20056;-70
2021/07/21 05:46:46;;;;;;;16.70;5.00;;;;;;;26.16;53.98;100897.41;5038134;28;20524;-70
2021/07/21 05:49:31;;;;;;;18.67;5.13;;;;;;;26.21;54.03;100899.72;5036797;28;20393;-70
2021/07/21 05:52:36;;;;;;;23.65;6.88;;;;;;;26.21;52.42;100894.16;5031426;28;20045;-70
2021/07/21 05:55:21;;;;;;;12.32;5.47;;;;;;;26.36;49.47;100903.94;5027170;28;20052;-69
2021/07/21 05:58:08;;;;;;;18.17;4.38;;;;;;;26.28;49.82;100901.69;5026980;28;20048;-69
2021/07/21 06:00:56;;;;;;;16.42;5.88;;;;;;;26.05;50.75;100905.13;5027742;28;20068;-69
2021/07/21 06:03:46;;;;;;;22.15;6.68;;;;;;;26.07;50.80;100908.28;5038080;28;20053;-70
2021/07/21 06:06:46;;;;;;;29.33;5.38;;;;;;;26.14;51.56;100919.34;5032123;28;20504;-70
2021/07/21 06:09:50;;;;;;;16.15;4.93;;;;;;;26.25;50.50;100911.69;5015773;28;20048;-69
2021/07/21 06:12:39;;;;;;;18.50;6.10;;;;;;;26.25;50.48;100914.47;5036023;28;20052;-70
2021/07/21 06:15:27;;;;;;;27.77;6.65;;;;;;;26.22;50.52;100915.28;5012602;28;20053;-69
2021/07/21 06:18:13;;;;;;;19.10;6.47;;;;;;;26.41;49.39;100910.28;5018215;28;20049;-70
2021/07/21 06:21:03;;;;;;;18.98;5.65;;;;;;;26.59;48.82;100919.19;5032095;28;20064;-70
2021/07/21 06:23:51;;;;;;;17.27;4.85;;;;;;;26.63;49.08;100912.34;5033658;28;20048;-70
2021/07/21 06:26:37;;;;;;;15.40;4.80;;;;;;;26.70;48.83;100917.06;5037109;28;20405;-69
2021/07/21 06:29:51;;;;;;;10.60;4.32;;;;;;;26.59;49.01;100914.41;5026129;28;21415;-69
2021/07/21 06:32:38;;;;;;;21.05;4.95;;;;;;;26.65;48.71;100923.09;5020583;28;20049;-70
2021/07/21 06:35:24;;;;;;;12.45;4.72;;;;;;;26.75;48.03;100922.16;5028266;28;20048;-70
2021/07/21 06:38:08;;;;;;;14.98;4.07;;;;;;;26.85;47.99;100926.81;5038095;28;20040;-69
2021/07/21 06:40:57;;;;;;;19.15;5.25;;;;;;;26.95;47.96;100923.09;5031319;28;20052;-70
2021/07/21 06:43:43;;;;;;;14.65;4.60;;;;;;;27.06;47.10;100937.69;5037875;28;20064;-70
2021/07/21 06:46:51;;;;;;;20.83;4.28;;;;;;;27.09;47.28;100928.44;5016372;28;20517;-69
2021/07/21 06:49:38;;;;;;;11.63;3.50;;;;;;;27.00;47.14;100936.56;5023846;28;20409;-70
2021/07/21 06:52:24;;;;;;;13.98;3.58;;;;;;;26.94;48.05;100943.84;5021377;28;20049;-70
2021/07/21 06:55:11;;;;;;;18.42;4.50;;;;;;;27.07;46.96;100944.81;5048761;28;20524;-70
2021/07/21 06:58:04;;;;;;;14.27;4.13;;;;;;;27.31;45.51;100947.66;5029604;28;20044;-70
2021/07/21 07:01:09;;;;;;;11.80;4.20;;;;;;;27.41;46.21;100952.28;5034406;28;20048;-69
2021/07/21 07:04:13;;;;;;;12.65;4.47;;;;;;;27.41;46.53;100955.06;5029348;28;20073;-70
2021/07/21 07:07:17;;;;;;;8.52;3.78;;;;;;;27.35;46.08;100956.78;5034776;28;20700;-70
2021/07/21 07:10:20;;;;;;;9.25;3.88;;;;;;;27.50;45.00;100952.56;5019434;28;20113;-70
2021/07/21 07:13:05;;;;;;;20.55;4.20;;;;;;;27.68;44.88;100957.84;5031061;28;20052;-69
2021/07/21 07:15:50;;;;;;;20.40;3.95;;;;;;;27.95;44.46;100956.53;5032481;28;20120;-70
2021/07/21 07:18:36;;;;;;;13.38;3.45;;;;;;;28.11;43.50;100950.22;5028768;28;20415;-69
2021/07/21 07:21:22;;;;;;;16.58;4.07;;;;;;;28.21;43.59;100957.66;5039036;28;20057;-69
2021/07/21 07:24:07;;;;;;;20.80;4.07;;;;;;;28.35;42.29;100960.16;5039904;28;20044;-69
2021/07/21 07:26:52;;;;;;;12.38;3.35;;;;;;;28.05;44.08;100957.53;5038741;28;20052;-69
2021/07/21 07:29:37;;;;;;;15.98;3.40;;;;;;;28.17;43.86;100962.53;5021220;28;20072;-71
2021/07/21 07:32:22;;;;;;;11.32;3.70;;;;;;;28.03;43.81;100957.19;5021466;28;20073;-70
2021/07/21 07:35:09;;;;;;;18.65;4.15;;;;;;;28.02;43.60;100962.00;5031252;28;20052;-69
2021/07/21 07:37:54;;;;;;;13.50;3.47;;;;;;;28.38;42.18;100964.09;5030878;28;20072;-70
2021/07/21 07:40:40;;;;;;;12.43;3.47;;;;;;;28.38;43.20;100969.72;5021124;28;20061;-70
2021/07/21 07:43:25;;;;;;;17.42;4.30;;;;;;;28.36;43.04;100963.75;5020990;28;20053;-69
2021/07/21 07:46:10;;;;;;;8.07;3.83;;;;;;;28.52;42.56;100969.41;5035410;28;20047;-70
2021/07/21 07:48:56;;;;;;;13.43;3.33;;;;;;;28.57;42.84;100966.09;5040648;28;20506;-69
2021/07/21 07:51:41;;;;;;;10.70;3.42;;;;;;;28.60;43.14;100976.41;5036233;28;20064;-69
2021/07/21 07:54:26;;;;;;;12.15;4.50;;;;;;;28.54;43.27;100968.97;5037125;28;20073;-68
2021/07/21 07:57:12;;;;;;;13.50;4.63;;;;;;;28.67;42.84;100965.06;5030487;28;20071;-70
2021/07/21 07:59:58;;;;;;;18.83;3.92;;;;;;;28.55;43.30;100968.53;5039719;28;20057;-69
2021/07/21 08:02:43;;;;;;;10.07;4.15;;;;;;;28.55;43.16;100967.75;5039662;28;20048;-71
2021/07/21 08:05:27;;;;;;;12.02;3.90;;;;;;;28.65;42.24;100961.91;5034765;28;20067;-70
2021/07/21 08:08:12;;;;;;;9.77;3.60;;;;;;;28.70;42.44;100964.19;5020406;28;20053;-70
2021/07/21 08:10:58;;;;;;;9.38;3.15;;;;;;;28.78;43.24;100968.47;5024172;28;20045;-69
2021/07/21 08:13:43;;;;;;;14.82;3.97;;;;;;;28.87;41.87;100962.25;5027127;28;20053;-70
2021/07/21 08:16:28;;;;;;;14.73;3.90;;;;;;;28.99;40.38;100963.59;5029525;28;20040;-71
2021/07/21 08:19:13;;;;;;;9.23;3.60;;;;;;;28.98;41.19;100962.81;5032783;28;20048;-70
2021/07/21 08:21:58;;;;;;;14.85;4.03;;;;;;;29.19;40.13;100967.91;5025927;28;20512;-69
2021/07/21 08:24:43;;;;;;;9.23;3.08;;;;;;;29.15;40.03;100963.63;5017392;28;20049;-69
2021/07/21 08:27:28;;;;;;;8.48;4.35;;;;;;;29.25;39.89;100968.19;5023695;28;20048;-70
2021/07/21 08:30:13;;;;;;;14.00;3.88;;;;;;;29.12;40.30;100968.06;5024828;28;20069;-68
2021/07/21 08:33:00;;;;;;;13.82;3.83;;;;;;;29.32;40.05;100974.41;5038884;28;20056;-69
2021/07/21 08:35:46;;;;;;;17.42;4.05;;;;;;;29.21;39.40;100973.06;5027336;28;20053;-69
2021/07/21 08:38:31;;;;;;;10.45;3.42;;;;;;;29.35;38.61;100975.56;5033181;28;20056;-69
2021/07/21 08:41:16;;;;;;;10.45;3.92;;;;;;;29.62;34.97;100966.88;5029195;28;20049;-71
2021/07/21 08:44:01;;;;;;;7.22;3.13;;;;;;;29.66;37.70;100962.75;5037230;28;20060;-67
2021/07/21 08:46:46;;;;;;;21.27;4.22;;;;;;;29.40;38.82;100966.63;5029550;28;20048;-67
2021/07/21 08:49:31;;;;;;;16.00;3.67;;;;;;;31.67;33.47;100974.06;5036984;28;20044;-71
2021/07/21 08:52:21;;;;;;;11.50;3.13;;;;;;;30.76;35.14;100972.94;5035327;28;20052;-70
2021/07/21 08:55:08;;;;;;;14.63;3.10;;;;;;;30.43;35.61;100975.88;5034675;28;20409;-70
2021/07/21 08:57:53;;;;;;;11.68;3.17;;;;;;;30.27;36.49;100973.16;5028262;28;20049;-72
2021/07/21 09:00:39;;;;;;;7.97;3.05;;;;;;;30.05;36.29;100977.78;5039306;28;20413;-70
2021/07/21 09:03:24;;;;;;;12.85;3.33;;;;;;;30.02;37.21;100973.06;5034498;28;20056;-70
2021/07/21 09:06:14;;;;;;;34.40;4.70;;;;;;;29.93;32.46;100979.28;5024722;28;20441;-70
2021/07/21 09:08:59;;;;;;;8.80;3.13;;;;;;;29.85;34.20;100982.72;5022019;28;20053;-67
2021/07/21 09:11:44;;;;;;;14.85;3.28;;;;;;;29.91;35.44;100966.97;5038992;28;20048;-68
2021/07/21 09:14:29;;;;;;;8.32;2.90;;;;;;;30.00;35.88;100976.31;5027249;28;20545;-67
2021/07/21 09:17:21;;;;;;;13.65;3.15;;;;;;;30.07;36.22;100980.94;5031855;28;20099;-67
2021/07/21 09:20:15;;;;;;;20.75;3.00;;;;;;;30.37;33.74;100977.69;5036063;28;20036;-66
2021/07/21 09:23:00;;;;;;;;;;;;;;;30.51;33.45;100982.91;5029974;28;20508;-65
2021/07/21 09:25:45;;;;;;;7.20;2.75;;;;;;;30.56;32.92;100987.97;5031595;28;19913;-66
2021/07/21 09:28:40;;;;;;;10.75;2.97;;;;;;;30.62;32.93;100981.81;5036610;28;20044;-66
2021/07/21 09:31:40;;;;;;;16.02;3.05;;;;;;;30.73;33.65;100982.28;5031745;28;20040;-65
2021/07/21 09:34:26;;;;;;;8.65;3.15;;;;;;;30.79;33.77;100986.06;5031914;28;20123;-66
2021/07/21 09:37:14;;;;;;;16.15;3.75;;;;;;;30.65;33.29;100986.50;5026481;28;20044;-67
2021/07/21 09:40:02;;;;;;;7.90;3.20;;;;;;;30.63;34.29;100986.19;5030675;28;20406;-66
2021/07/21 09:42:47;;;;;;;7.15;3.15;;;;;;;30.75;34.16;100986.19;5035060;28;20049;-66
2021/07/21 09:45:36;;;;;;;12.20;3.10;;;;;;;30.70;34.42;100977.53;5032343;28;20044;-66
2021/07/21 09:48:36;;;;;;;7.68;2.90;;;;;;;30.80;33.49;100982.84;5026570;28;20060;-65
2021/07/21 09:51:27;;;;;;;12.38;3.60;;;;;;;30.85;34.07;100982.28;5034581;28;20048;-66
2021/07/21 09:54:14;;;;;;;10.63;3.95;;;;;;;30.83;34.18;100983.97;5030576;28;20056;-66
2021/07/21 09:57:12;;;;;;;10.70;3.88;;;;;;;30.94;33.83;100975.97;5033514;28;20408;-66
2021/07/21 09:59:58;;;;;;;10.57;3.67;;;;;;;31.03;34.28;100981.75;5030127;28;20048;-66
2021/07/21 10:02:48;;;;;;;11.23;3.83;;;;;;;31.05;33.99;100982.09;5031644;28;20064;-66
2021/07/21 10:05:33;;;;;;;16.45;3.22;;;;;;;31.03;33.76;100967.72;5030431;28;20040;-66
2021/07/21 10:08:33;;;;;;;4.90;2.92;;;;;;;31.17;33.66;100967.25;5045492;28;20072;-66
2021/07/21 10:11:33;;;;;;;7.80;3.45;;;;;;;31.24;34.96;100971.88;5042482;28;20048;-66
2021/07/21 10:14:17;;;;;;;17.70;3.97;;;;;;;31.28;34.73;100967.69;5033481;28;20048;-67
2021/07/21 10:17:03;;;;;;;8.18;4.32;;;;;;;31.37;34.66;100964.97;5031415;28;20053;-67
2021/07/21 10:19:48;;;;;;;15.18;3.25;;;;;;;31.35;34.51;100961.03;5033843;28;20057;-66
2021/07/21 10:22:33;;;;;;;11.68;4.78;;;;;;;31.48;35.89;100963.84;5037368;28;20140;-66
2021/07/21 10:25:18;;;;;;;8.70;3.72;;;;;;;31.43;35.16;100968.00;5025211;28;20518;-67
2021/07/21 10:28:04;;;;;;;10.15;4.25;;;;;;;31.50;34.72;100962.13;5030298;28;20053;-66
2021/07/21 10:30:49;;;;;;;14.82;3.83;;;;;;;31.62;34.40;100963.38;5029444;28;20049;-66
2021/07/21 10:33:35;;;;;;;7.53;3.92;;;;;;;31.58;35.43;100965.53;5028653;28;20057;-66
2021/07/21 10:36:21;;;;;;;17.52;3.78;;;;;;;31.62;35.10;100961.34;5032510;28;20397;-66
2021/07/21 10:39:14;;;;;;;8.98;4.00;;;;;;;31.71;35.24;100960.66;5036649;28;20036;-66
2021/07/21 10:42:10;;;;;;;16.10;4.07;;;;;;;31.68;35.40;100962.34;5032703;28;20048;-68
2021/07/21 10:45:19;;;;;;;7.65;3.53;;;;;;;31.74;35.95;100968.19;5038639;28;20040;-66
2021/07/21 10:48:16;;;;;;;7.95;3.50;;;;;;;31.79;35.20;100953.56;5028018;28;20429;-66
2021/07/21 10:51:07;;;;;;;10.80;4.20;;;;;;;31.88;34.50;100950.03;5040280;28;20065;-66
2021/07/21 10:54:10;;;;;;;7.68;3.70;;;;;;;31.57;35.96;100949.91;5029359;28;20041;-66
2021/07/21 11:00:08;;;;;;;10.20;4.25;;;;;;;31.73;34.99;100947.72;5029999;28;20036;-66
2021/07/21 11:02:53;;;;;;;19.35;5.68;;;;;;;31.86;35.01;100939.22;5027655;28;20053;-67
2021/07/21 11:05:39;;;;;;;14.55;3.85;;;;;;;31.94;35.23;100946.19;5026675;28;20489;-68
2021/07/21 11:08:27;;;;;;;13.02;4.07;;;;;;;31.86;35.35;100939.22;5032584;28;20107;-67
2021/07/21 11:11:21;;;;;;;10.40;4.32;;;;;;;31.97;35.29;100945.25;5029811;28;20053;-66
2021/07/21 11:14:09;;;;;;;11.15;3.22;;;;;;;31.90;35.30;100939.09;5035773;28;20044;-67
2021/07/21 11:16:55;;;;;;;13.55;3.95;;;;;;;31.96;34.98;100935.22;5032120;28;20417;-67
2021/07/21 11:19:50;;;;;;;12.25;4.22;;;;;;;31.74;35.13;100931.63;5036397;28;20041;-68
2021/07/21 11:22:36;;;;;;;12.15;4.10;;;;;;;32.00;35.03;100929.50;5033356;28;20045;-66
2021/07/21 11:25:23;;;;;;;8.82;3.72;;;;;;;32.07;35.17;100927.19;5020595;28;20044;-66
2021/07/21 11:28:10;;;;;;;9.95;4.20;;;;;;;31.90;35.22;100922.22;5036606;28;20068;-66
2021/07/21 11:30:59;;;;;;;10.38;3.90;;;;;;;32.04;33.76;100922.50;5034406;28;20049;-67
2021/07/21 11:33:55;;;;;;;12.40;4.45;;;;;;;32.15;34.42;100922.13;5032182;28;20436;-67
2021/07/21 11:36:43;;;;;;;7.13;3.25;;;;;;;32.14;33.32;100920.56;5031794;28;20045;-66
2021/07/21 11:39:50;;;;;;;8.10;3.25;;;;;;;32.34;33.77;100917.38;5032063;28;20036;-67
2021/07/21 11:42:38;;;;;;;5.28;3.30;;;;;;;32.46;32.57;100916.53;5038090;28;20060;-67
2021/07/21 11:45:23;;;;;;;4.22;2.80;;;;;;;32.50;33.02;100920.00;5033397;28;20048;-66
2021/07/21 11:48:09;;;;;;;9.52;3.83;;;;;;;32.53;32.09;100908.56;5032607;28;20045;-67
2021/07/21 11:50:54;;;;;;;10.73;3.55;;;;;;;32.59;32.27;100903.91;5035144;28;20061;-68
2021/07/21 11:53:39;;;;;;;8.85;4.40;;;;;;;32.56;32.26;100906.88;5036401;28;20044;-66
2021/07/21 11:56:24;;;;;;;10.50;3.67;;;;;;;32.65;32.87;100901.31;5029889;28;20049;-66
2021/07/21 11:59:09;;;;;;;7.53;3.47;;;;;;;32.55;32.79;100899.69;5034016;28;20048;-66
2021/07/21 12:02:05;;;;;;;9.93;3.53;;;;;;;32.55;32.04;100889.19;5033989;28;20053;-67
2021/07/21 12:04:52;;;;;;;9.10;3.72;;;;;;;32.68;32.75;100894.75;5033253;28;20041;-67
2021/07/21 12:07:39;;;;;;;18.15;4.53;;;;;;;32.80;32.93;100899.50;5036249;28;20052;-66
2021/07/21 12:10:24;;;;;;;8.75;3.25;;;;;;;32.76;31.96;100887.59;5033862;28;20044;-66
2021/07/21 12:13:15;;;;;;;7.65;3.53;;;;;;;32.80;31.75;100888.22;5032435;28;20052;-65
2021/07/21 12:16:00;;;;;;;8.48;3.33;;;;;;;32.90;33.59;100887.00;5029276;28;20520;-68
2021/07/21 12:18:45;;;;;;;10.88;4.90;;;;;;;32.86;33.64;100889.19;5037749;28;20056;-68
2021/07/21 12:21:33;;;;;;;9.15;4.80;;;;;;;32.86;34.15;100874.31;5031925;28;20040;-68
2021/07/21 12:24:31;;;;;;;13.23;5.30;;;;;;;32.93;33.72;100874.00;5035617;28;20041;-67
2021/07/21 12:27:30;;;;;;;14.93;4.45;;;;;;;32.89;33.54;100870.56;5032205;28;20048;-67
2021/07/21 12:30:18;;;;;;;7.45;3.92;;;;;;;32.90;35.17;100883.41;5033414;28;20052;-67
2021/07/21 12:33:05;;;;;;;10.57;4.55;;;;;;;32.78;35.43;100879.44;5034746;28;20052;-67
2021/07/21 12:35:50;;;;;;;24.83;5.05;;;;;;;32.71;35.48;100874.13;5028516;28;20049;-67
2021/07/21 12:38:39;;;;;;;11.52;4.32;;;;;;;32.68;36.31;100870.19;5034066;28;20477;-68
2021/07/21 12:41:24;;;;;;;10.70;4.45;;;;;;;32.81;36.14;100874.94;5035340;28;21307;-67
2021/07/21 12:44:17;;;;;;;13.18;5.00;;;;;;;32.77;35.62;100871.44;5026562;28;20044;-67
2021/07/21 12:47:30;;;;;;;24.38;5.45;;;;;;;32.94;35.46;100876.38;5035656;28;20052;-67
2021/07/21 12:50:27;;;;;;;7.70;4.32;;;;;;;32.83;34.81;100872.41;5031549;28;20528;-67
2021/07/21 12:53:19;;;;;;;12.48;4.28;;;;;;;32.55;35.59;100877.16;5037390;28;20049;-67
2021/07/21 12:56:04;;;;;;;11.25;4.70;;;;;;;32.66;35.42;100860.66;5029511;28;20536;-68
2021/07/21 12:59:12;;;;;;;13.95;4.90;;;;;;;32.75;35.50;100863.47;5033062;28;20040;-66
2021/07/21 13:02:11;;;;;;;7.82;5.22;;;;;;;32.74;35.44;100855.50;5029663;28;20041;-66
2021/07/21 13:04:56;;;;;;;9.10;4.38;;;;;;;32.95;36.23;100854.63;5031441;28;20052;-68
2021/07/21 13:07:52;;;;;;;17.27;4.53;;;;;;;33.07;35.54;100854.47;5035135;28;20060;-67
2021/07/21 13:10:42;;;;;;;8.27;4.50;;;;;;;32.91;35.70;100856.81;5035236;28;20044;-68